Latest Coastal Weather Observations for Centre Island

IDD60701

Issued at 9:41 am CST Wednesday 4 March 2015 (issued every 10 minutes, with the page automatically refreshed every 10 minutes)

About coastal observations | Map of coastal stations | Coastal observations for NT | Marine services | Other Formats
Station Details ID: 014703 Name: CENTRE ISLAND Lat: -15.74 Lon: 136.82 Height: 12.2 m
Data from the previous 72 hours. | See also: Recent months at Centre Island
Date/Time
CST
Temp

°C
Wind Pressure Rain
since 9am
mm
Weather Cloud Vis
km
Sea
Height
m
Swell
Dir
 
Speed
knots
Gust
knots
hPa Trend Height
m
Period
s
Dir
04/09:30am 30.6 ESE 5 6 1009.8 - 0.0 - - - - - - -
04/09:00am 31.1 ESE 4 6 1009.9 - 0.0 - - - - - - -
04/08:30am 31.0 E 3 5 1009.7 - 0.0 - - - - - - -
04/08:00am 30.1 CALM 0 0 1009.2 - 0.0 - - - - - - -
04/07:30am 29.1 CALM 0 3 1008.7 - 0.0 - - - - - - -
04/07:00am 28.0 NNW 4 5 1008.3 - 0.0 - - - - - - -
04/06:30am 27.5 WNW 1 3 1007.7 - 0.0 - - - - - - -
04/06:00am 27.6 WNW 3 3 1007.8 - 0.0 - - - - - - -
04/05:30am 27.6 NW 4 5 1007.3 - 0.0 - - - - - - -
04/05:00am 27.8 NNW 5 7 1007.0 - 0.0 - - - - - - -
04/04:30am 27.8 NW 5 6 1006.6 - 0.0 - - - - - - -
04/04:00am 28.0 NW 5 6 1006.8 - 0.0 - - - - - - -
04/03:30am 28.1 NNW 5 6 1006.7 - 0.0 - - - - - - -
04/03:00am 28.2 NW 5 6 1006.9 - 0.0 - - - - - - -
04/02:30am 28.2 NNW 4 5 1006.7 - 0.0 - - - - - - -
04/02:00am 28.3 NW 5 6 1006.8 - 0.0 - - - - - - -
04/01:30am 29.0 NNE 4 6 1007.4 - 0.0 - - - - - - -
04/01:00am 29.2 NNE 4 6 1007.9 - 0.0 - - - - - - -
04/12:30am 29.7 NE 6 8 1008.6 - 0.0 - - - - - - -
04/12:00am 29.6 NE 5 7 1008.8 - 0.0 - - - - - - -
 
Date/Time
CST
Temp

°C
Wind Pressure Rain
since 9am
mm
Weather Cloud Vis
km
Sea
Height
m
Swell
Dir
 
Speed
knots
Gust
knots
hPa Trend Height
m
Period
s
Dir
03/11:30pm 29.6 NNE 6 7 1009.0 - 0.0 - - - - - - -
03/11:00pm 29.6 NNE 6 8 1008.8 - 0.0 - - - - - - -
03/10:30pm 29.7 NNE 7 9 1008.7 - 0.0 - - - - - - -
03/10:00pm 29.8 NNE 7 8 1008.6 - 0.0 - - - - - - -
03/09:30pm 29.9 NE 7 10 1008.4 - 0.0 - - - - - - -
03/09:00pm 30.0 NE 7 8 1008.2 - 0.0 - - - - - - -
03/08:30pm 30.0 NNE 7 9 1007.9 - 0.0 - - - - - - -
03/08:00pm 30.0 NE 8 9 1007.6 - 0.0 - - - - - - -
03/07:30pm 30.1 NE 7 11 1007.3 - 0.0 - - - - - - -
03/07:00pm 30.2 NE 8 11 1006.9 - 0.0 - - - - - - -
03/06:30pm 30.4 NE 8 11 1006.7 - 0.0 - - - - - - -
03/06:00pm 31.0 NNE 8 11 1006.4 - 0.0 - - - - - - -
03/05:30pm 31.2 NNE 9 12 1006.1 - 0.0 - - - - - - -
03/05:00pm 32.0 NNE 10 13 1005.8 - 0.0 - - - - - - -
03/04:30pm 32.6 NNE 9 13 1006.0 - 0.0 - - - - - - -
03/04:00pm 32.5 NNE 10 13 1006.3 - 0.0 - - - - - - -
03/03:30pm 33.4 NNE 10 14 1006.7 - 0.0 - - - - - - -
03/03:00pm 32.7 NNE 11 14 1006.6 - 0.0 - - - - - - -
03/02:30pm 33.3 NNE 9 14 1006.6 - 0.0 - - - - - - -
03/02:00pm 33.1 NE 9 12 1007.2 - 0.0 - - - - - - -
03/01:30pm 32.0 NNE 9 11 1007.6 - 0.0 - - - - - - -
03/01:00pm 31.9 NNE 9 12 1007.9 - 0.0 - - - - - - -
03/12:30pm 32.1 NE 11 14 1008.2 - 0.0 - - - - - - -
03/12:00pm 32.8 NNE 10 14 1008.2 - 0.0 - - - - - - -
03/11:30am 33.1 NE 11 15 1008.7 - 0.0 - - - - - - -
03/11:00am 32.5 NE 11 15 1008.8 - 0.0 - - - - - - -
03/10:30am 32.0 NE 12 15 1009.1 - 0.0 - - - - - - -
03/10:00am 31.7 NE 13 17 1009.1 - 0.0 - - - - - - -
03/09:30am 31.0 NE 13 17 1008.6 - 0.0 - - - - - - -
03/09:00am 31.7 NE 14 18 1008.4 - 0.0 - - - - - - -
03/08:30am 30.9 NE 10 14 1007.8 - 0.0 - - - - - - -
03/08:00am 30.9 ENE 9 11 1007.4 - 0.0 - - - - - - -
03/07:30am 29.8 ENE 9 11 1007.1 - 0.0 - - - - - - -
03/07:00am 29.3 ENE 9 12 1007.0 - 0.0 - - - - - - -
03/06:30am 29.0 ENE 9 11 1006.7 - 0.0 - - - - - - -
03/06:00am 29.0 ENE 8 12 1006.6 - 0.0 - - - - - - -
03/05:30am 29.1 ENE 9 11 1006.4 - 0.0 - - - - - - -
03/05:00am 29.2 ENE 9 11 1006.1 - 0.0 - - - - - - -
03/04:30am 29.1 ENE 9 11 1005.8 - 0.0 - - - - - - -
03/04:00am 29.1 ENE 7 9 1005.6 - 0.0 - - - - - - -
03/03:30am 29.1 ENE 8 10 1005.4 - 0.0 - - - - - - -
03/03:00am 29.1 ENE 9 12 1005.4 - 0.0 - - - - - - -
03/02:30am 29.3 ENE 9 11 1005.6 - 0.0 - - - - - - -
03/02:00am 29.4 ENE 10 12 1006.0 - 0.0 - - - - - - -
03/01:30am 29.3 ENE 9 11 1006.4 - 0.0 - - - - - - -
03/01:00am 29.3 NE 9 11 1006.3 - 0.0 - - - - - - -
03/12:30am 29.4 ENE 10 12 1006.4 - 0.0 - - - - - - -
03/12:00am 29.5 ENE 11 14 1006.5 - 0.0 - - - - - - -
 
Date/Time
CST
Temp

°C
Wind Pressure Rain
since 9am
mm
Weather Cloud Vis
km
Sea
Height
m
Swell
Dir
 
Speed
knots
Gust
knots
hPa Trend Height
m
Period
s
Dir
02/11:30pm 29.7 ENE 12 15 1006.3 - 0.0 - - - - - - -
02/11:00pm 29.7 ENE 12 16 1006.5 - 0.0 - - - - - - -
02/10:30pm 29.7 ENE 11 14 1006.4 - 0.0 - - - - - - -
02/10:00pm 29.7 ENE 12 15 1006.6 - 0.0 - - - - - - -
02/09:30pm 29.8 ENE 12 14 1006.6 - 0.0 - - - - - - -
02/09:00pm 29.8 ENE 12 14 1006.3 - 0.0 - - - - - - -
02/08:30pm 30.0 ENE 10 13 1006.1 - 0.0 - - - - - - -
02/08:00pm 30.0 ENE 12 15 1005.7 - 0.0 - - - - - - -
02/07:30pm 30.2 ENE 13 16 1005.5 - 0.0 - - - - - - -
02/07:00pm 30.4 ENE 12 15 1004.8 - 0.0 - - - - - - -
02/06:30pm 30.9 ENE 12 14 1004.4 - 0.0 - - - - - - -
02/06:00pm 31.6 ENE 13 17 1004.0 - 0.0 - - - - - - -
02/05:30pm 32.0 NE 10 13 1004.0 - 0.0 - - - - - - -
02/05:00pm 32.1 NE 10 12 1004.0 - 0.0 - - - - - - -
02/04:30pm 32.5 NNE 11 14 1004.1 - 0.0 - - - - - - -
02/04:00pm 32.9 NE 11 14 1004.2 - 0.0 - - - - - - -
02/03:30pm 33.3 NNE 10 13 1004.4 - 0.0 - - - - - - -
02/03:00pm 33.6 NNE 9 13 1004.4 - 0.0 - - - - - - -
02/02:30pm 33.0 NE 10 14 1004.7 - 0.0 - - - - - - -
02/02:00pm 34.1 NE 11 15 1005.0 - 0.0 - - - - - - -
02/01:30pm 33.1 NNE 12 15 1005.5 - 0.0 - - - - - - -
02/01:00pm 33.8 NNE 12 15 1005.7 - 0.0 - - - - - - -
02/12:30pm 33.6 NNE 13 17 1006.2 - 0.0 - - - - - - -
02/12:00pm 33.3 NNE 11 16 1006.4 - 0.0 - - - - - - -
02/11:30am 33.3 NNE 12 15 1006.7 - 0.0 - - - - - - -
02/11:00am 32.9 NE 11 15 1006.9 - 0.0 - - - - - - -
02/10:30am 32.9 NE 11 15 1007.2 - 0.0 - - - - - - -
02/10:00am 32.9 NE 11 14 1007.3 - 0.0 - - - - - - -
02/09:30am 32.4 NE 11 14 1007.1 - 0.0 - - - - - - -
02/09:00am 32.0 NE 9 13 1007.0 - 0.0 - - - - - - -
02/08:30am 31.8 ENE 10 14 1006.5 - 0.0 - - - - - - -
02/08:00am 31.0 ENE 10 14 1006.3 - 0.0 - - - - - - -
02/07:30am 30.1 E 11 14 1006.1 - 0.0 - - - - - - -
02/07:00am 29.6 ENE 10 13 1006.0 - 0.0 - - - - - - -
02/06:30am 29.1 ENE 11 14 1005.5 - 0.0 - - - - - - -
02/06:00am 29.0 ENE 12 14 1005.2 - 0.0 - - - - - - -
02/05:30am 29.0 E 10 11 1005.1 - 0.0 - - - - - - -
02/05:00am 29.0 E 9 11 1005.0 - 0.0 - - - - - - -
02/04:30am 29.1 ENE 10 13 1005.0 - 0.0 - - - - - - -
02/04:00am 29.0 ENE 11 13 1005.0 - 0.0 - - - - - - -
02/03:30am 29.0 ENE 10 13 1004.8 - 0.0 - - - - - - -
02/03:00am 29.0 ENE 9 12 1004.7 - 0.0 - - - - - - -
02/02:30am 29.1 ENE 10 13 1005.0 - 0.0 - - - - - - -
02/02:00am 29.3 ENE 12 16 1005.4 - 0.0 - - - - - - -
02/01:30am 29.3 ENE 9 12 1005.7 - 0.0 - - - - - - -
02/01:00am 29.3 ENE 10 13 1006.0 - 0.0 - - - - - - -
02/12:30am 29.4 ENE 11 14 1006.1 - 0.0 - - - - - - -
02/12:00am 29.5 ENE 14 18 1006.2 - 0.0 - - - - - - -
 
Date/Time
CST
Temp

°C
Wind Pressure Rain
since 9am
mm
Weather Cloud Vis
km
Sea
Height
m
Swell
Dir
 
Speed
knots
Gust
knots
hPa Trend Height
m
Period
s
Dir
01/11:30pm 29.7 ENE 15 18 1006.4 - 0.0 - - - - - - -
01/11:00pm 29.7 ENE 14 18 1006.6 - 0.0 - - - - - - -
01/10:30pm 29.9 ENE 12 15 1006.9 - 0.0 - - - - - - -
01/10:00pm 30.0 ENE 12 15 1007.0 - 0.0 - - - - - - -
01/09:30pm 30.0 ENE 11 13 1006.7 - 0.0 - - - - - - -
01/09:00pm 30.1 ENE 10 13 1006.1 - 0.0 - - - - - - -
01/08:30pm 30.1 ENE 10 13 1005.8 - 0.0 - - - - - - -
01/08:00pm 30.2 ENE 11 14 1005.3 - 0.0 - - - - - - -
01/07:30pm 30.3 ENE 9 11 1004.8 - 0.0 - - - - - - -
01/07:00pm 30.6 ENE 12 14 1004.1 - 0.0 - - - - - - -
01/06:30pm 31.1 ENE 12 15 1003.6 - 0.0 - - - - - - -
01/06:00pm 31.7 ENE 12 16 1003.3 - 0.0 - - - - - - -
01/05:30pm 32.4 ENE 11 14 1003.3 - 0.0 - - - - - - -
01/05:00pm 33.0 ENE 10 13 1003.1 - 0.0 - - - - - - -
01/04:30pm 33.0 NNE 9 12 1003.3 - 0.0 - - - - - - -
01/04:00pm 32.8 NE 9 12 1003.9 - 0.0 - - - - - - -
01/03:30pm 33.6 NNE 10 13 1004.1 - 0.0 - - - - - - -
01/03:00pm 33.7 NE 10 13 1004.3 - 0.0 - - - - - - -
01/02:30pm 33.9 NNE 10 13 1004.5 - 0.0 - - - - - - -
01/02:00pm 33.6 NNE 9 11 1004.8 - 0.0 - - - - - - -
01/01:30pm 33.6 NNE 8 11 1005.2 - 0.0 - - - - - - -
01/01:00pm 34.3 NE 9 13 1005.9 - 0.0 - - - - - - -
01/12:30pm 33.9 NNE 8 11 1006.6 - 0.0 - - - - - - -
01/12:00pm 33.6 NNE 7 10 1006.9 - 0.0 - - - - - - -
01/11:30am 32.5 NE 8 11 1007.2 - 0.0 - - - - - - -
01/11:00am 33.3 NNE 7 11 1007.2 - 0.0 - - - - - - -
01/10:30am 32.4 ENE 6 8 1007.4 - 0.0 - - - - - - -
01/10:00am 32.5 ENE 6 8 1007.5 - 0.0 - - - - - - -

Other Formats:

Comma delimited format used in spreadsheet applications
http://www.bom.gov.au/fwo/IDD60701/IDD60701.94248.axf

JavaScript Object Notation format (JSON) in row-major order
http://www.bom.gov.au/fwo/IDD60701/IDD60701.94248.json